createdAt,value
2023-03-03T00:01:43.428Z,11.13
2023-03-03T00:04:12.108Z,11.55
2023-03-03T00:06:41.951Z,10.95
2023-03-03T00:09:10.550Z,11.98
2023-03-03T00:11:39.094Z,12.15
2023-03-03T00:14:20.704Z,11.07
2023-03-03T00:16:49.959Z,11.82
2023-03-03T00:19:20.558Z,12.52
2023-03-03T00:21:51.689Z,11.60
2023-03-03T00:24:23.312Z,12.02
2023-03-03T00:26:55.473Z,12.85
2023-03-03T00:29:31.611Z,12.50
2023-03-03T00:32:26.263Z,11.75
2023-03-03T00:34:56.441Z,11.52
2023-03-03T00:37:33.936Z,12.15
2023-03-03T00:40:21.905Z,12.65
2023-03-03T00:42:52.448Z,12.80
2023-03-03T00:45:30.137Z,12.20
2023-03-03T00:47:59.463Z,11.73
2023-03-03T00:50:31.946Z,12.83
2023-03-03T00:53:14.659Z,12.47
2023-03-03T00:55:43.185Z,13.80
2023-03-03T00:58:11.842Z,14.37
2023-03-03T01:00:44.891Z,14.90
2023-03-03T01:03:17.910Z,13.83
2023-03-03T01:05:46.809Z,12.90
2023-03-03T01:08:16.716Z,12.97
2023-03-03T01:10:48.562Z,13.55
2023-03-03T01:13:17.325Z,13.60
2023-03-03T01:15:46.395Z,13.87
2023-03-03T01:18:16.161Z,13.30
2023-03-03T01:20:44.751Z,13.87
2023-03-03T01:23:13.690Z,15.45
2023-03-03T01:25:43.656Z,15.03
2023-03-03T01:28:12.476Z,15.03
2023-03-03T01:30:41.470Z,14.93
2023-03-03T01:33:10.321Z,14.82
2023-03-03T01:35:40.934Z,15.50
2023-03-03T01:38:09.505Z,13.93
2023-03-03T01:40:38.250Z,14.90
2023-03-03T01:43:08.706Z,15.20
2023-03-03T01:46:06.627Z,15.90
2023-03-03T01:48:39.445Z,14.97
2023-03-03T01:51:16.484Z,14.57
2023-03-03T01:53:47.489Z,16.27
2023-03-03T01:56:17.618Z,15.23
2023-03-03T01:58:53.910Z,15.00
2023-03-03T02:01:27.520Z,15.07
2023-03-03T02:03:56.749Z,16.63
2023-03-03T02:06:29.574Z,14.13
2023-03-03T02:09:03.030Z,16.20
2023-03-03T02:11:33.878Z,16.33
2023-03-03T02:14:04.072Z,16.20
2023-03-03T02:16:32.760Z,15.73
2023-03-03T02:19:01.601Z,15.30
2023-03-03T02:21:31.018Z,15.43
2023-03-03T02:24:05.053Z,17.60
2023-03-03T02:26:40.398Z,16.10
2023-03-03T02:29:11.340Z,16.80
2023-03-03T02:31:43.158Z,18.30
2023-03-03T02:34:12.384Z,15.63
2023-03-03T02:36:42.491Z,16.40
2023-03-03T02:39:15.182Z,17.03
2023-03-03T02:41:49.015Z,17.33
2023-03-03T02:44:19.233Z,17.50
2023-03-03T02:46:49.474Z,17.70
2023-03-03T02:49:20.546Z,17.90
2023-03-03T02:51:49.288Z,17.57
2023-03-03T02:54:20.006Z,18.10
2023-03-03T02:56:50.316Z,17.63
2023-03-03T02:59:19.935Z,18.77
2023-03-03T03:01:51.088Z,19.70
2023-03-03T03:04:23.127Z,18.60
2023-03-03T03:06:53.625Z,18.57
2023-03-03T03:09:24.594Z,18.90
2023-03-03T03:11:55.784Z,19.50
2023-03-03T03:14:27.615Z,18.50
2023-03-03T03:16:57.414Z,19.23
2023-03-03T03:19:26.020Z,18.30
2023-03-03T03:21:54.759Z,19.67
2023-03-03T03:24:23.381Z,19.70
2023-03-03T03:27:00.123Z,20.57
2023-03-03T03:29:29.777Z,20.57
2023-03-03T03:31:58.356Z,21.17
2023-03-03T03:34:27.121Z,22.90
2023-03-03T03:36:57.312Z,23.70
2023-03-03T03:39:27.998Z,23.77
2023-03-03T03:41:58.867Z,23.03
2023-03-03T03:44:27.917Z,23.57
2023-03-03T03:46:57.056Z,21.67
2023-03-03T03:49:26.594Z,23.10
2023-03-03T03:51:58.141Z,25.00
2023-03-03T03:54:29.778Z,22.53
2023-03-03T03:56:59.844Z,23.27
2023-03-03T03:59:29.499Z,23.83
2023-03-03T04:01:58.494Z,23.43
2023-03-03T04:04:27.814Z,23.87
2023-03-03T04:06:56.419Z,23.33
2023-03-03T04:09:25.009Z,22.80
2023-03-03T04:11:53.636Z,24.77
2023-03-03T04:14:23.531Z,24.93
2023-03-03T04:16:52.820Z,26.73
2023-03-03T04:19:21.462Z,25.23
2023-03-03T04:21:52.736Z,25.17
2023-03-03T04:24:21.321Z,27.17
2023-03-03T04:26:52.759Z,28.13
2023-03-03T04:29:22.745Z,27.83
2023-03-03T04:31:51.900Z,27.50
2023-03-03T04:34:20.925Z,25.67
2023-03-03T04:36:50.093Z,28.50
2023-03-03T04:39:18.878Z,30.33
2023-03-03T04:41:47.468Z,30.50
2023-03-03T04:44:16.178Z,28.37
2023-03-03T04:46:46.782Z,29.30
2023-03-03T04:49:15.396Z,29.60
2023-03-03T04:51:45.160Z,30.53
2023-03-03T04:54:14.292Z,31.83
2023-03-03T04:56:42.993Z,30.47
2023-03-03T04:59:11.663Z,30.67
2023-03-03T05:01:40.358Z,33.33
2023-03-03T05:04:10.287Z,30.27
2023-03-03T05:06:40.931Z,33.60
2023-03-03T05:09:09.691Z,34.20
2023-03-03T05:11:38.826Z,31.43
2023-03-03T05:14:08.236Z,35.80
2023-03-03T05:16:36.921Z,34.53
2023-03-03T05:19:05.466Z,33.37
2023-03-03T05:21:36.921Z,35.10
2023-03-03T05:24:06.496Z,36.47
2023-03-03T05:26:35.074Z,34.37
2023-03-03T05:29:03.989Z,34.03
2023-03-03T05:31:32.609Z,35.83
2023-03-03T05:34:01.223Z,36.47
2023-03-03T05:36:29.884Z,35.50
2023-03-03T05:38:59.901Z,36.87
2023-03-03T05:41:28.487Z,37.57
2023-03-03T05:43:57.076Z,36.23
2023-03-03T05:46:25.634Z,36.90
2023-03-03T05:48:54.368Z,36.57
2023-03-03T05:51:22.912Z,36.40
2023-03-03T05:53:51.612Z,34.43
2023-03-03T05:56:21.547Z,35.83
2023-03-03T05:58:50.148Z,34.97
2023-03-03T06:01:18.713Z,34.57
2023-03-03T06:03:47.378Z,36.07
2023-03-03T06:06:17.147Z,33.90
2023-03-03T06:08:46.080Z,33.37
2023-03-03T06:11:16.641Z,33.87
2023-03-03T06:13:46.945Z,33.67
2023-03-03T06:16:15.663Z,34.53
2023-03-03T06:18:44.243Z,34.87
2023-03-03T06:21:12.830Z,35.63
2023-03-03T06:23:41.591Z,34.40
2023-03-03T06:26:10.492Z,34.90
2023-03-03T06:28:39.269Z,34.40
2023-03-03T06:31:09.235Z,34.90
2023-03-03T06:33:38.416Z,33.37
2023-03-03T06:36:07.513Z,33.80
2023-03-03T06:38:36.175Z,35.20
2023-03-03T06:41:07.446Z,33.10
2023-03-03T06:43:36.133Z,32.77
2023-03-03T06:46:05.023Z,33.23
2023-03-03T06:48:35.421Z,32.73
2023-03-03T06:51:07.898Z,34.20
2023-03-03T06:53:36.613Z,34.80
2023-03-03T06:56:10.693Z,33.33
2023-03-03T06:58:39.477Z,32.63
2023-03-03T07:01:16.582Z,32.67
2023-03-03T07:03:47.478Z,32.03
2023-03-03T07:06:23.424Z,32.10
2023-03-03T07:08:53.063Z,28.60
2023-03-03T07:11:23.746Z,27.10
2023-03-03T07:13:54.019Z,25.93
2023-03-03T07:16:28.531Z,25.97
2023-03-03T07:19:01.557Z,26.97
2023-03-03T07:21:34.023Z,23.80
2023-03-03T07:24:12.581Z,25.93
2023-03-03T07:26:41.223Z,24.97
2023-03-03T07:29:22.327Z,23.57
2023-03-03T07:31:51.980Z,26.03
2023-03-03T07:34:24.774Z,24.57
2023-03-03T07:36:56.604Z,29.03
2023-03-03T07:39:35.063Z,26.53
2023-03-03T07:42:21.226Z,26.33
2023-03-03T07:44:57.366Z,26.03
2023-03-03T07:47:27.645Z,25.23
2023-03-03T07:50:00.640Z,26.63
2023-03-03T07:52:32.815Z,25.63
2023-03-03T07:55:03.679Z,24.43
2023-03-03T07:57:37.751Z,26.77
2023-03-03T08:00:49.298Z,26.60
2023-03-03T08:03:20.447Z,25.93
2023-03-03T08:05:51.564Z,24.93
2023-03-03T08:08:31.092Z,25.23
2023-03-03T08:11:01.201Z,23.33
2023-03-03T08:13:37.749Z,25.43
2023-03-03T08:16:26.992Z,25.47
2023-03-03T08:18:57.215Z,26.07
2023-03-03T08:21:28.332Z,25.63
2023-03-03T08:23:56.840Z,24.07
2023-03-03T08:26:26.830Z,26.10
2023-03-03T08:28:56.300Z,26.33
2023-03-03T08:31:39.826Z,25.13
2023-03-03T08:34:09.636Z,24.90
2023-03-03T08:36:39.541Z,24.33
2023-03-03T08:39:09.313Z,24.88
2023-03-03T10:30:00.796Z,32.42
2023-03-03T10:32:51.757Z,26.50
2023-03-03T10:35:40.048Z,26.00
2023-03-03T10:38:30.306Z,23.08
2023-03-03T10:41:08.486Z,24.80
2023-03-03T10:43:51.124Z,22.35
2023-03-03T10:46:45.566Z,21.60
2023-03-03T10:49:39.390Z,22.75
2023-03-03T10:52:33.830Z,21.73
2023-03-03T10:55:18.578Z,21.17
2023-03-03T10:57:59.145Z,22.15
2023-03-03T11:00:32.631Z,22.55
2023-03-03T11:03:31.607Z,22.38
2023-03-03T11:06:02.498Z,23.75
2023-03-03T11:08:37.459Z,23.90
2023-03-03T11:11:14.108Z,27.08
2023-03-03T11:13:48.826Z,26.60
2023-03-03T11:16:29.555Z,26.55
2023-03-03T11:19:09.047Z,27.83
2023-03-03T11:21:47.605Z,30.83
2023-03-03T11:24:28.272Z,31.75
2023-03-03T11:27:16.412Z,33.03
2023-03-03T11:29:56.955Z,31.98
2023-03-03T11:32:33.832Z,31.40
2023-03-03T11:35:19.995Z,31.10
2023-03-03T11:38:01.385Z,32.58
2023-03-03T11:40:37.138Z,31.73
2023-03-03T11:43:26.308Z,32.17
2023-03-03T11:46:10.094Z,30.30
2023-03-03T11:48:44.891Z,28.63
2023-03-03T11:51:20.991Z,30.70
2023-03-03T11:53:59.808Z,28.92
2023-03-03T11:56:34.878Z,28.17
2023-03-03T11:59:21.403Z,28.50
2023-03-03T12:01:55.223Z,30.88
2023-03-03T12:04:30.876Z,30.08
2023-03-03T12:07:19.435Z,31.15
2023-03-03T12:10:00.503Z,31.10
2023-03-03T12:12:34.867Z,31.85
2023-03-03T12:15:18.419Z,30.48
2023-03-03T12:18:08.330Z,33.75
2023-03-03T12:20:46.005Z,36.35
2023-03-03T12:23:36.899Z,32.55
2023-03-03T12:26:11.217Z,30.20
2023-03-03T12:28:46.081Z,30.65
2023-03-03T12:31:30.472Z,30.90
2023-03-03T12:34:01.979Z,31.63
2023-03-03T12:36:51.378Z,29.42
2023-03-03T12:39:36.759Z,31.40
2023-03-03T12:42:13.854Z,31.52
2023-03-03T12:44:47.888Z,31.27
2023-03-03T12:47:23.409Z,29.90
2023-03-03T12:50:08.311Z,29.48
2023-03-03T12:52:47.721Z,29.38
2023-03-03T12:55:27.843Z,28.45
2023-03-03T12:58:03.976Z,26.40
2023-03-03T13:00:44.689Z,27.88
2023-03-03T13:03:31.569Z,26.70
2023-03-03T13:06:12.223Z,27.73
2023-03-03T13:08:59.094Z,28.70
2023-03-03T13:11:53.040Z,28.02
2023-03-03T13:14:32.952Z,28.48
2023-03-03T13:17:16.677Z,28.75
2023-03-03T13:19:50.449Z,27.63
2023-03-03T13:22:28.888Z,28.23
2023-03-03T13:25:02.645Z,27.10
2023-03-03T13:27:39.360Z,27.13
2023-03-03T13:30:17.413Z,25.23
2023-03-03T13:32:52.991Z,24.90
2023-03-03T13:35:32.956Z,24.02
2023-03-03T13:38:06.366Z,23.15
2023-03-03T13:40:43.209Z,23.55
2023-03-03T13:43:19.985Z,22.70
2023-03-03T13:45:59.005Z,21.40
2023-03-03T13:48:43.567Z,22.20
2023-03-03T13:51:20.649Z,24.75
2023-03-03T13:53:56.674Z,24.98
2023-03-03T13:56:38.764Z,23.38
2023-03-03T13:59:21.372Z,22.77
2023-03-03T14:01:58.980Z,22.65
2023-03-03T14:04:37.851Z,22.25
2023-03-03T14:07:14.420Z,23.95
2023-03-03T14:09:59.713Z,23.38
2023-03-03T14:12:37.925Z,22.05
2023-03-03T14:15:21.608Z,23.95
2023-03-03T14:18:19.308Z,22.00
2023-03-03T14:20:51.125Z,23.55
2023-03-03T14:23:24.067Z,22.23
2023-03-03T14:25:57.696Z,23.15
2023-03-03T14:28:28.445Z,25.20
2023-03-03T14:31:00.254Z,25.75
2023-03-03T14:33:32.334Z,26.33
2023-03-03T14:36:06.814Z,27.08
2023-03-03T14:38:45.981Z,26.98
2023-03-03T14:41:17.781Z,27.35
2023-03-03T14:43:57.794Z,25.50
2023-03-03T14:46:36.379Z,24.85
2023-03-03T14:49:07.804Z,23.08
2023-03-03T14:51:42.937Z,23.45
2023-03-03T14:54:27.409Z,24.30
2023-03-03T14:57:07.547Z,22.52
2023-03-03T14:59:36.436Z,22.70
2023-03-03T15:02:32.061Z,23.02
2023-03-03T15:05:21.621Z,23.55
2023-03-03T15:07:54.964Z,23.05
2023-03-03T15:10:35.975Z,21.38
2023-03-03T15:13:29.210Z,22.77
2023-03-03T15:16:12.577Z,23.05
2023-03-03T15:19:09.831Z,22.30
2023-03-03T15:21:48.218Z,24.17
2023-03-03T15:24:24.407Z,23.10
2023-03-03T15:26:58.360Z,21.95
2023-03-03T15:29:31.422Z,24.88
2023-03-03T15:32:07.021Z,21.80
2023-03-03T15:34:44.125Z,23.20
2023-03-03T15:37:39.065Z,24.15
2023-03-03T15:40:20.367Z,23.80
2023-03-03T15:42:51.062Z,24.65
2023-03-03T15:45:26.217Z,24.75
2023-03-03T15:48:25.020Z,25.77
2023-03-03T15:51:02.035Z,25.95
2023-03-03T15:53:55.062Z,24.83
2023-03-03T15:56:30.982Z,25.33
2023-03-03T15:59:26.401Z,25.55
2023-03-03T16:02:04.655Z,26.52
2023-03-03T16:04:37.261Z,28.08
2023-03-03T16:07:17.104Z,27.77
2023-03-03T16:09:56.611Z,28.05
2023-03-03T16:12:32.250Z,27.15
2023-03-03T16:15:20.037Z,28.60
2023-03-03T16:17:56.501Z,29.67
2023-03-03T16:20:31.635Z,30.17
2023-03-03T16:23:17.588Z,32.72
2023-03-03T16:26:07.974Z,32.30
2023-03-03T16:29:03.633Z,33.40
2023-03-03T16:31:37.663Z,35.60
2023-03-03T16:34:14.698Z,34.70
2023-03-03T16:36:55.696Z,35.85
2023-03-03T16:39:38.614Z,35.25
2023-03-03T16:42:21.404Z,36.65
2023-03-03T16:45:00.267Z,36.78
2023-03-03T16:47:43.469Z,36.15
2023-03-03T16:50:24.059Z,36.35
2023-03-03T16:53:01.146Z,33.10
2023-03-03T16:55:36.031Z,33.95
2023-03-03T16:58:14.479Z,34.03
2023-03-03T17:00:50.202Z,33.55
2023-03-03T17:03:43.916Z,33.05
2023-03-03T17:06:22.163Z,34.08
2023-03-03T17:09:32.250Z,35.38
2023-03-03T17:12:31.648Z,35.15
2023-03-03T17:15:12.118Z,35.13
2023-03-03T17:17:45.367Z,34.72
2023-03-03T17:20:24.765Z,36.13
2023-03-03T17:23:04.127Z,35.85
2023-03-03T17:25:41.245Z,36.28
2023-03-03T17:28:26.465Z,36.90
2023-03-03T17:31:00.189Z,35.75
2023-03-03T17:33:47.208Z,37.17
2023-03-03T17:36:34.106Z,38.15
2023-03-03T17:39:13.883Z,36.50
2023-03-03T17:41:49.215Z,39.08
2023-03-03T17:44:28.694Z,38.28
2023-03-03T17:47:01.295Z,38.40
2023-03-03T17:49:55.611Z,39.13
2023-03-03T17:52:55.810Z,38.60
2023-03-03T17:55:52.049Z,39.80
2023-03-03T17:58:46.462Z,39.17
2023-03-03T18:01:26.716Z,37.97
2023-03-03T18:04:13.329Z,40.00
2023-03-03T18:07:17.819Z,37.80
2023-03-03T18:10:13.778Z,37.67
2023-03-03T18:12:51.064Z,37.53
2023-03-03T18:15:38.263Z,39.67
2023-03-03T18:18:22.071Z,37.08
2023-03-03T18:21:03.958Z,36.90
2023-03-03T18:23:41.806Z,37.40
2023-03-03T18:26:34.841Z,37.60
2023-03-03T18:29:22.353Z,38.53
2023-03-03T18:32:03.431Z,42.45
2023-03-03T18:34:38.026Z,39.95
2023-03-03T18:37:11.360Z,42.45
2023-03-03T18:39:47.786Z,41.28
2023-03-03T18:42:38.189Z,39.83
2023-03-03T18:45:49.809Z,40.55
2023-03-03T18:48:20.118Z,42.25
2023-03-03T18:50:52.440Z,43.97
2023-03-03T18:53:26.969Z,43.70
2023-03-03T18:55:57.507Z,43.72
2023-03-03T18:58:33.867Z,44.80
2023-03-03T19:01:30.136Z,44.40
2023-03-03T19:04:18.185Z,43.72
2023-03-03T19:07:24.691Z,44.00
2023-03-03T19:09:58.056Z,45.72
2023-03-03T19:12:47.550Z,46.70
2023-03-03T19:15:45.644Z,46.45
2023-03-03T19:18:21.062Z,47.92
2023-03-03T19:20:57.731Z,46.42
2023-03-03T19:23:49.883Z,46.63
2023-03-03T19:26:59.669Z,44.70
2023-03-03T19:30:05.944Z,46.65
2023-03-03T19:33:04.676Z,44.83
2023-03-03T19:35:41.785Z,46.03
2023-03-03T19:38:26.410Z,46.05
2023-03-03T19:41:08.821Z,45.10
2023-03-03T19:43:45.107Z,43.90
2023-03-03T19:46:37.378Z,45.53
2023-03-03T19:49:18.088Z,46.17
2023-03-03T19:51:53.399Z,45.88
2023-03-03T19:55:03.288Z,43.03
2023-03-03T19:57:46.002Z,42.70
2023-03-03T20:00:23.226Z,45.10
2023-03-03T20:03:23.943Z,42.75
2023-03-03T20:05:57.531Z,42.50
2023-03-03T20:08:32.582Z,45.58
2023-03-03T20:11:06.366Z,43.15
2023-03-03T20:13:48.274Z,48.03
2023-03-03T20:16:28.684Z,45.30
2023-03-03T20:19:25.660Z,45.90
2023-03-03T20:22:05.491Z,44.15
2023-03-03T20:24:47.079Z,46.30
2023-03-03T20:27:18.590Z,44.97
2023-03-03T20:30:08.592Z,47.22
2023-03-03T20:32:59.354Z,43.13
2023-03-03T20:35:37.869Z,42.05
2023-03-03T20:38:16.683Z,46.75
2023-03-03T20:40:52.415Z,46.88
2023-03-03T20:43:31.310Z,45.58
2023-03-03T20:46:09.689Z,46.78
2023-03-03T20:48:54.220Z,47.60
2023-03-03T20:51:30.623Z,47.67
2023-03-03T20:54:08.111Z,44.83
2023-03-03T20:56:43.363Z,46.33
2023-03-03T20:59:21.680Z,46.50
2023-03-03T21:01:58.122Z,48.15
2023-03-03T21:04:28.945Z,45.78
2023-03-03T21:06:58.350Z,44.63
2023-03-03T21:09:30.009Z,44.92
2023-03-03T21:12:00.106Z,46.70
2023-03-03T21:14:30.595Z,47.28
2023-03-03T21:17:02.701Z,46.53
2023-03-03T21:19:32.504Z,47.23
2023-03-03T21:22:02.767Z,47.97
2023-03-03T21:24:54.641Z,47.90
2023-03-03T21:27:28.821Z,45.73
2023-03-03T21:30:07.151Z,44.93
2023-03-03T21:32:40.522Z,46.70
2023-03-03T21:35:11.961Z,47.83
2023-03-03T21:37:46.763Z,49.07
2023-03-03T21:40:18.354Z,48.30
2023-03-03T21:42:46.879Z,44.57
2023-03-03T21:45:17.148Z,44.57
2023-03-03T21:47:47.284Z,46.17
2023-03-03T21:50:16.793Z,47.97
2023-03-03T21:52:45.251Z,48.70
2023-03-03T21:55:13.836Z,45.87
2023-03-03T21:57:42.299Z,49.50
2023-03-03T22:00:12.540Z,48.30
2023-03-03T22:02:41.047Z,47.40
2023-03-03T22:05:11.142Z,46.87
2023-03-03T22:07:39.721Z,44.95
2023-03-03T22:10:09.927Z,45.90
2023-03-03T22:12:38.647Z,47.97
2023-03-03T22:15:08.222Z,46.80
2023-03-03T22:17:36.780Z,45.93
2023-03-03T22:20:05.796Z,46.97
2023-03-03T22:22:35.704Z,48.15
2023-03-03T22:25:04.427Z,48.05
2023-03-03T22:27:33.048Z,47.05
2023-03-03T22:30:01.903Z,49.55
2023-03-03T22:32:30.751Z,47.95
2023-03-03T22:34:59.392Z,43.15
2023-03-03T22:37:27.907Z,48.22
2023-03-03T22:39:57.809Z,47.67
2023-03-03T22:42:26.328Z,47.07
2023-03-03T22:44:54.970Z,44.05
2023-03-03T22:47:23.610Z,47.22
2023-03-03T22:49:52.166Z,47.10
2023-03-03T22:52:20.826Z,45.35
2023-03-03T22:54:49.386Z,46.92
2023-03-03T22:57:19.354Z,45.22
2023-03-03T22:59:47.914Z,48.22
2023-03-03T23:02:16.447Z,49.05
2023-03-03T23:04:45.162Z,45.28
2023-03-03T23:07:13.720Z,44.05
2023-03-03T23:09:42.235Z,45.63
2023-03-03T23:12:10.832Z,44.20
2023-03-03T23:14:40.666Z,44.00
2023-03-03T23:17:09.191Z,45.35
2023-03-03T23:19:37.806Z,45.55
2023-03-03T23:22:06.318Z,44.72
2023-03-03T23:24:34.920Z,42.67
2023-03-03T23:27:03.414Z,43.03
2023-03-03T23:29:31.971Z,43.42
2023-03-03T23:32:03.140Z,44.20
2023-03-03T23:34:32.057Z,42.20
2023-03-03T23:37:00.550Z,43.15
2023-03-03T23:39:29.170Z,40.13
2023-03-03T23:41:57.733Z,41.05
2023-03-03T23:44:26.330Z,38.83
2023-03-03T23:46:54.903Z,39.85
2023-03-03T23:49:25.029Z,37.15
2023-03-03T23:51:53.598Z,39.22
2023-03-03T23:54:22.347Z,41.53
2023-03-03T23:56:50.957Z,39.08
2023-03-03T23:59:19.515Z,39.22
